Time;durP1;ratioP1;P1;durP2;ratioP2;P2;SDS_P1;SDS_P2;PMS_P1;PMS_P2;Temp;Humidity;BMP_temperature;BMP_pressure;BME280_temperature;BME280_humidity;BME280_pressure;Samples;Min_cycle;Max_cycle;Signal;HPM_P1;HPM_P2
2022/03/06 00:00:46;;;;;;;22.30;11.30;;;;;;;;;;4986962;28;20055;-83
2022/03/06 00:03:13;;;;;;;23.45;10.90;;;;;;;;;;4987842;28;20051;-81
2022/03/06 00:05:40;;;;;;;25.08;10.73;;;;;;;;;;4989512;28;20050;-81
2022/03/06 00:08:07;;;;;;;28.20;11.60;;;;;;;;;;4986839;28;20051;-83
2022/03/06 00:10:34;;;;;;;20.40;10.32;;;;;;;;;;4986659;28;20059;-83
2022/03/06 00:13:01;;;;;;;22.65;11.40;;;;;;;;;;4984119;28;20458;-83
2022/03/06 00:15:29;;;;;;;22.40;10.02;;;;;;;;;;4985582;28;20051;-82
2022/03/06 00:17:56;;;;;;;24.42;10.85;;;;;;;;;;4985699;28;20505;-82
2022/03/06 00:20:24;;;;;;;25.70;11.57;;;;;;;;;;4988508;28;20131;-83
2022/03/06 00:22:52;;;;;;;23.52;10.93;;;;;;;;;;4994032;28;20051;-81
2022/03/06 00:25:20;;;;;;;24.42;11.02;;;;;;;;;;4990900;28;20043;-83
2022/03/06 00:27:46;;;;;;;23.80;11.30;;;;;;;;;;4984874;28;20059;-84
2022/03/06 00:30:13;;;;;;;26.90;12.52;;;;;;;;;;4984529;28;20055;-83
2022/03/06 00:32:42;;;;;;;23.25;11.27;;;;;;;;;;4980336;28;20051;-81
2022/03/06 00:35:10;;;;;;;25.45;11.30;;;;;;;;;;4981633;28;20051;-84
2022/03/06 00:37:37;;;;;;;25.70;11.55;;;;;;;;;;4980127;28;20090;-81
2022/03/06 00:40:05;;;;;;;25.20;13.18;;;;;;;;;;4982890;28;20102;-83
2022/03/06 00:42:32;;;;;;;20.85;10.30;;;;;;;;;;4982898;28;20055;-83
2022/03/06 00:44:59;;;;;;;25.08;11.30;;;;;;;;;;4987987;28;20062;-83
2022/03/06 00:47:26;;;;;;;21.40;11.05;;;;;;;;;;5000314;28;20051;-79
2022/03/06 00:49:55;;;;;;;24.15;11.40;;;;;;;;;;5001964;28;20054;-80
2022/03/06 00:52:22;;;;;;;25.90;11.50;;;;;;;;;;4991454;28;20506;-82
2022/03/06 00:54:49;;;;;;;22.02;10.65;;;;;;;;;;4990832;28;20050;-84
2022/03/06 00:57:16;;;;;;;22.88;11.45;;;;;;;;;;4986187;28;20058;-83
2022/03/06 00:59:43;;;;;;;22.90;10.13;;;;;;;;;;4969018;23;20115;-73
2022/03/06 01:02:10;;;;;;;25.48;12.30;;;;;;;;;;4919030;29;20056;-73
2022/03/06 01:04:37;;;;;;;24.92;11.55;;;;;;;;;;4919021;29;20410;-73
2022/03/06 01:07:06;;;;;;;25.42;12.27;;;;;;;;;;4918780;29;20177;-73
2022/03/06 01:09:33;;;;;;;26.17;12.25;;;;;;;;;;4905672;29;20053;-73
2022/03/06 01:12:00;;;;;;;22.20;11.70;;;;;;;;;;4900244;29;20060;-72
2022/03/06 01:14:28;;;;;;;26.70;11.13;;;;;;;;;;4899928;29;20055;-71
2022/03/06 01:16:55;;;;;;;22.90;11.73;;;;;;;;;;4900010;29;20578;-71
2022/03/06 01:19:25;;;;;;;26.27;12.13;;;;;;;;;;4899815;29;20052;-72
2022/03/06 01:21:52;;;;;;;26.23;11.77;;;;;;;;;;4899823;29;20062;-72
2022/03/06 01:24:20;;;;;;;25.25;11.38;;;;;;;;;;4900006;29;20276;-72
2022/03/06 01:26:47;;;;;;;24.15;10.63;;;;;;;;;;4899915;29;20048;-72
2022/03/06 01:29:14;;;;;;;26.35;12.32;;;;;;;;;;4899527;29;20472;-73
2022/03/06 01:31:41;;;;;;;24.73;11.13;;;;;;;;;;4899837;29;20104;-72
2022/03/06 01:34:08;;;;;;;22.88;11.77;;;;;;;;;;4899583;29;20044;-72
2022/03/06 01:36:35;;;;;;;22.92;10.25;;;;;;;;;;4899317;29;20055;-72
2022/03/06 01:39:02;;;;;;;27.15;12.77;;;;;;;;;;4899366;29;20053;-73
2022/03/06 01:41:33;;;;;;;25.10;11.30;;;;;;;;;;4899562;29;20056;-73
2022/03/06 01:44:00;;;;;;;28.17;12.40;;;;;;;;;;4908754;29;20421;-73
2022/03/06 01:46:27;;;;;;;24.95;10.98;;;;;;;;;;4937421;29;20052;-74
2022/03/06 01:48:54;;;;;;;27.08;11.60;;;;;;;;;;4937536;29;20490;-73
2022/03/06 01:51:21;;;;;;;26.13;11.05;;;;;;;;;;4937277;29;20051;-73
2022/03/06 01:53:48;;;;;;;24.58;11.95;;;;;;;;;;4937288;29;20055;-73
2022/03/06 01:56:15;;;;;;;23.63;10.95;;;;;;;;;;4936005;29;20069;-73
2022/03/06 01:58:44;;;;;;;23.65;10.82;;;;;;;;;;4936727;29;20055;-73
2022/03/06 02:01:11;;;;;;;27.52;13.07;;;;;;;;;;4937192;29;20051;-73
2022/03/06 02:03:38;;;;;;;26.73;11.77;;;;;;;;;;4937096;29;20058;-73
2022/03/06 02:06:06;;;;;;;26.52;12.35;;;;;;;;;;4936883;29;20410;-73
2022/03/06 02:08:33;;;;;;;24.27;11.90;;;;;;;;;;4936779;29;20452;-72
2022/03/06 02:11:01;;;;;;;25.02;11.93;;;;;;;;;;4936673;29;20062;-73
2022/03/06 02:13:28;;;;;;;27.10;11.43;;;;;;;;;;4936694;29;20277;-73
2022/03/06 02:15:57;;;;;;;24.85;11.55;;;;;;;;;;4936594;29;20141;-72
2022/03/06 02:18:24;;;;;;;28.85;11.45;;;;;;;;;;4936467;29;20501;-73
2022/03/06 02:20:52;;;;;;;24.90;12.15;;;;;;;;;;4936412;29;22018;-73
2022/03/06 02:23:20;;;;;;;24.17;11.27;;;;;;;;;;4936515;29;20469;-72
2022/03/06 02:25:47;;;;;;;21.73;10.88;;;;;;;;;;4936218;29;20412;-73
2022/03/06 02:28:14;;;;;;;26.42;11.98;;;;;;;;;;4936276;29;20047;-73
2022/03/06 02:30:43;;;;;;;26.23;12.60;;;;;;;;;;4936610;29;20506;-73
2022/03/06 02:33:12;;;;;;;22.65;11.20;;;;;;;;;;4936251;29;20056;-73
2022/03/06 02:35:39;;;;;;;26.77;12.32;;;;;;;;;;4935954;29;20532;-73
2022/03/06 02:38:07;;;;;;;26.67;12.65;;;;;;;;;;4935967;29;20142;-73
2022/03/06 02:40:40;;;;;;;26.77;12.05;;;;;;;;;;4936049;29;20056;-73
2022/03/06 02:43:07;;;;;;;27.27;13.10;;;;;;;;;;4936505;29;20048;-74
2022/03/06 02:45:35;;;;;;;27.90;12.77;;;;;;;;;;4918754;29;20052;-73
2022/03/06 02:48:03;;;;;;;23.33;12.02;;;;;;;;;;4916717;29;20083;-73
2022/03/06 02:50:32;;;;;;;26.08;12.45;;;;;;;;;;4916929;29;20056;-73
2022/03/06 02:53:03;;;;;;;28.95;12.65;;;;;;;;;;4916957;29;20056;-73
2022/03/06 02:55:30;;;;;;;24.55;12.32;;;;;;;;;;4916878;29;20147;-73
2022/03/06 02:57:59;;;;;;;25.02;12.35;;;;;;;;;;4916856;29;20052;-73
2022/03/06 03:00:27;;;;;;;25.80;12.45;;;;;;;;;;4916802;29;20192;-73
2022/03/06 03:02:54;;;;;;;29.17;13.48;;;;;;;;;;4916644;29;20071;-73
2022/03/06 03:05:22;;;;;;;24.42;12.07;;;;;;;;;;4916402;29;20374;-73
2022/03/06 03:07:50;;;;;;;27.88;12.63;;;;;;;;;;4916246;29;20054;-73
2022/03/06 03:10:19;;;;;;;28.00;13.40;;;;;;;;;;4916705;29;20387;-73
2022/03/06 03:12:46;;;;;;;28.67;12.60;;;;;;;;;;4916703;29;20143;-73
2022/03/06 03:15:15;;;;;;;28.02;13.18;;;;;;;;;;4916677;29;20044;-73
2022/03/06 03:17:42;;;;;;;28.65;12.77;;;;;;;;;;4916091;29;20082;-73
2022/03/06 03:20:11;;;;;;;28.25;12.95;;;;;;;;;;4916434;29;20048;-73
2022/03/06 03:22:38;;;;;;;31.02;14.75;;;;;;;;;;4916851;29;20052;-73
2022/03/06 03:25:06;;;;;;;25.90;12.93;;;;;;;;;;4916958;29;20059;-73
2022/03/06 03:27:34;;;;;;;28.33;12.65;;;;;;;;;;4916334;29;20058;-72
2022/03/06 03:30:01;;;;;;;27.05;12.55;;;;;;;;;;4916471;29;20135;-72
2022/03/06 03:32:29;;;;;;;24.25;12.32;;;;;;;;;;4917024;29;20063;-72
2022/03/06 03:34:56;;;;;;;25.38;13.23;;;;;;;;;;4916706;29;20052;-72
2022/03/06 03:37:23;;;;;;;25.20;12.45;;;;;;;;;;4915821;29;20048;-72
2022/03/06 03:39:50;;;;;;;29.70;13.80;;;;;;;;;;4916136;29;20066;-72
2022/03/06 03:42:17;;;;;;;29.80;13.43;;;;;;;;;;4916184;29;20494;-73
2022/03/06 03:44:44;;;;;;;27.63;14.68;;;;;;;;;;4926577;29;20062;-73
2022/03/06 03:47:11;;;;;;;31.25;13.18;;;;;;;;;;4934943;29;20139;-73
2022/03/06 03:49:40;;;;;;;25.88;12.63;;;;;;;;;;4935022;29;20452;-73
2022/03/06 03:52:07;;;;;;;27.15;13.43;;;;;;;;;;4935118;29;20090;-73
2022/03/06 03:54:35;;;;;;;27.73;12.77;;;;;;;;;;4935414;29;20138;-72
2022/03/06 03:57:02;;;;;;;25.65;13.00;;;;;;;;;;4934993;29;20094;-72
2022/03/06 03:59:29;;;;;;;25.65;12.45;;;;;;;;;;4935086;29;20051;-72
2022/03/06 04:01:56;;;;;;;31.17;13.57;;;;;;;;;;4934827;29;20477;-72
2022/03/06 04:04:24;;;;;;;28.00;13.40;;;;;;;;;;4935277;29;20062;-72
2022/03/06 04:06:53;;;;;;;25.92;12.70;;;;;;;;;;4934752;29;20055;-72
2022/03/06 04:09:20;;;;;;;28.17;13.07;;;;;;;;;;4936343;29;20070;-72
2022/03/06 04:11:46;;;;;;;27.52;13.82;;;;;;;;;;4935117;29;20448;-72
2022/03/06 04:14:13;;;;;;;28.05;12.68;;;;;;;;;;4935465;29;20102;-72
2022/03/06 04:16:41;;;;;;;29.67;14.20;;;;;;;;;;4935058;29;20054;-72
2022/03/06 04:19:08;;;;;;;29.80;13.30;;;;;;;;;;4937348;29;20051;-72
2022/03/06 04:21:35;;;;;;;26.35;12.02;;;;;;;;;;4915151;29;20053;-72
2022/03/06 04:24:04;;;;;;;30.02;14.20;;;;;;;;;;4901256;29;20570;-73
2022/03/06 04:26:31;;;;;;;26.98;13.80;;;;;;;;;;4900622;29;20057;-72
2022/03/06 04:28:58;;;;;;;28.70;13.40;;;;;;;;;;4900791;29;20395;-73
2022/03/06 04:31:25;;;;;;;26.95;13.50;;;;;;;;;;4900900;29;20498;-73
2022/03/06 04:33:52;;;;;;;25.75;12.43;;;;;;;;;;4900818;29;20064;-73
2022/03/06 04:36:19;;;;;;;22.73;12.20;;;;;;;;;;4900379;29;20061;-73
2022/03/06 04:38:46;;;;;;;27.70;12.88;;;;;;;;;;4900524;29;20052;-73
2022/03/06 04:41:15;;;;;;;28.35;12.60;;;;;;;;;;4900691;29;20058;-72
2022/03/06 04:43:43;;;;;;;26.55;12.95;;;;;;;;;;4905493;29;20100;-72
2022/03/06 04:46:10;;;;;;;25.80;12.65;;;;;;;;;;4938059;29;20094;-73
2022/03/06 04:48:37;;;;;;;27.13;13.05;;;;;;;;;;4938060;29;20127;-73
2022/03/06 04:51:04;;;;;;;27.35;12.88;;;;;;;;;;4938334;29;20063;-73
2022/03/06 04:53:34;;;;;;;26.58;11.57;;;;;;;;;;4938037;29;20063;-73
2022/03/06 04:56:01;;;;;;;25.00;12.95;;;;;;;;;;4938295;29;20055;-72
2022/03/06 04:58:30;;;;;;;27.98;13.02;;;;;;;;;;4937990;29;20128;-72
2022/03/06 05:00:57;;;;;;;30.27;13.00;;;;;;;;;;4938554;29;20083;-73
2022/03/06 05:03:24;;;;;;;26.17;12.75;;;;;;;;;;4938898;29;20055;-73
2022/03/06 05:05:51;;;;;;;24.33;13.90;;;;;;;;;;4938540;29;20099;-73
2022/03/06 05:08:18;;;;;;;27.92;13.00;;;;;;;;;;4938902;29;20417;-73
2022/03/06 05:10:45;;;;;;;27.42;12.95;;;;;;;;;;4937973;29;20413;-73
2022/03/06 05:13:12;;;;;;;28.92;13.50;;;;;;;;;;4938292;29;20138;-73
2022/03/06 05:15:41;;;;;;;30.65;14.35;;;;;;;;;;4938000;29;20059;-73
2022/03/06 05:18:08;;;;;;;29.67;13.50;;;;;;;;;;4937968;29;20058;-73
2022/03/06 05:20:35;;;;;;;25.40;12.13;;;;;;;;;;4937429;29;20058;-73
2022/03/06 05:23:02;;;;;;;25.45;12.10;;;;;;;;;;4937843;29;20142;-73
2022/03/06 05:25:30;;;;;;;25.48;12.38;;;;;;;;;;4937219;29;20056;-73
2022/03/06 05:27:57;;;;;;;28.80;13.32;;;;;;;;;;4937660;29;20530;-73
2022/03/06 05:30:24;;;;;;;27.77;13.25;;;;;;;;;;4937844;29;20062;-73
2022/03/06 05:32:52;;;;;;;27.98;13.20;;;;;;;;;;4937559;29;20547;-73
2022/03/06 05:35:19;;;;;;;25.05;12.40;;;;;;;;;;4937343;29;20044;-73
2022/03/06 05:37:46;;;;;;;28.70;13.75;;;;;;;;;;4937414;29;20047;-72
2022/03/06 05:40:14;;;;;;;26.65;12.40;;;;;;;;;;4937631;29;20476;-72
2022/03/06 05:42:41;;;;;;;25.67;12.27;;;;;;;;;;4937928;29;20493;-72
2022/03/06 05:45:08;;;;;;;26.13;12.80;;;;;;;;;;4924276;29;20052;-72
2022/03/06 05:47:35;;;;;;;27.67;12.48;;;;;;;;;;4918422;29;20063;-72
2022/03/06 05:50:05;;;;;;;30.08;15.30;;;;;;;;;;4918152;29;20055;-73
2022/03/06 05:52:32;;;;;;;27.52;13.90;;;;;;;;;;4918455;29;20056;-74
2022/03/06 05:54:59;;;;;;;24.38;11.88;;;;;;;;;;4918185;29;20522;-73
2022/03/06 05:57:26;;;;;;;26.65;12.52;;;;;;;;;;4918064;29;20048;-73
2022/03/06 05:59:53;;;;;;;24.25;12.50;;;;;;;;;;4917974;29;20179;-73
2022/03/06 06:02:21;;;;;;;25.75;11.75;;;;;;;;;;4918113;29;20052;-73
2022/03/06 06:04:48;;;;;;;23.73;12.43;;;;;;;;;;4918204;29;20482;-73
2022/03/06 06:07:17;;;;;;;28.73;12.55;;;;;;;;;;4917740;29;20486;-73
2022/03/06 06:09:44;;;;;;;25.65;11.88;;;;;;;;;;4917655;29;20044;-73
2022/03/06 06:12:11;;;;;;;29.35;12.05;;;;;;;;;;4918364;29;20088;-73
2022/03/06 06:14:38;;;;;;;24.83;11.63;;;;;;;;;;4917760;29;20092;-74
2022/03/06 06:17:05;;;;;;;27.48;12.30;;;;;;;;;;4917725;29;20157;-73
2022/03/06 06:19:32;;;;;;;26.52;12.45;;;;;;;;;;4917493;29;20059;-73
2022/03/06 06:21:59;;;;;;;24.63;11.10;;;;;;;;;;4917651;29;20062;-73
2022/03/06 06:24:29;;;;;;;23.65;11.45;;;;;;;;;;4917346;29;20135;-73
2022/03/06 06:26:56;;;;;;;24.45;12.73;;;;;;;;;;4917536;29;20059;-73
2022/03/06 06:29:23;;;;;;;26.38;12.60;;;;;;;;;;4917311;29;20058;-73
2022/03/06 06:31:51;;;;;;;24.88;12.32;;;;;;;;;;4918034;29;20459;-73
2022/03/06 06:34:18;;;;;;;23.55;12.70;;;;;;;;;;4918577;29;20119;-73
2022/03/06 06:36:45;;;;;;;30.10;13.77;;;;;;;;;;4918226;29;20440;-73
2022/03/06 06:39:12;;;;;;;24.92;11.82;;;;;;;;;;4917704;29;20112;-73
2022/03/06 06:41:42;;;;;;;28.13;12.88;;;;;;;;;;4917043;29;20064;-74
2022/03/06 06:44:10;;;;;;;24.05;11.82;;;;;;;;;;4917960;29;20131;-73
2022/03/06 06:46:37;;;;;;;28.58;12.85;;;;;;;;;;4917251;29;20139;-73
2022/03/06 06:49:05;;;;;;;29.45;13.30;;;;;;;;;;4917023;29;20115;-74
2022/03/06 06:51:32;;;;;;;26.27;12.70;;;;;;;;;;4917632;29;20127;-73
2022/03/06 06:53:59;;;;;;;26.60;12.73;;;;;;;;;;4917871;29;20058;-73
2022/03/06 06:56:26;;;;;;;26.20;12.25;;;;;;;;;;4916900;29;20060;-73
2022/03/06 07:01:21;;;;;;;25.55;12.45;;;;;;;;;;4971548;28;20051;-58
2022/03/06 07:03:48;;;;;;;25.90;12.80;;;;;;;;;;4974502;28;20080;-60
2022/03/06 07:06:16;;;;;;;28.08;13.50;;;;;;;;;;4974697;28;20063;-58
2022/03/06 07:08:43;;;;;;;22.92;11.82;;;;;;;;;;4974593;28;20411;-56
2022/03/06 07:11:10;;;;;;;27.92;13.38;;;;;;;;;;4974258;28;20051;-59
2022/03/06 07:13:37;;;;;;;25.38;12.18;;;;;;;;;;4974383;28;20054;-56
2022/03/06 07:16:05;;;;;;;27.52;12.45;;;;;;;;;;4974224;28;20069;-58
2022/03/06 07:18:33;;;;;;;26.95;12.35;;;;;;;;;;4974242;28;20051;-57
2022/03/06 07:21:02;;;;;;;24.55;11.43;;;;;;;;;;4974305;28;20055;-58
2022/03/06 07:23:29;;;;;;;26.33;12.75;;;;;;;;;;4973926;28;20046;-58
2022/03/06 07:25:56;;;;;;;27.55;12.75;;;;;;;;;;4973912;28;20051;-57
2022/03/06 07:28:23;;;;;;;22.20;11.70;;;;;;;;;;4974283;28;20057;-55
2022/03/06 07:30:50;;;;;;;26.15;12.38;;;;;;;;;;4974258;28;20102;-58
2022/03/06 07:33:17;;;;;;;22.13;11.85;;;;;;;;;;4974230;28;20059;-57
2022/03/06 07:35:45;;;;;;;25.60;11.70;;;;;;;;;;4974114;28;20061;-57
2022/03/06 07:38:12;;;;;;;21.25;11.45;;;;;;;;;;4974144;28;20051;-58
2022/03/06 07:40:39;;;;;;;25.25;13.02;;;;;;;;;;4974191;28;20516;-58
2022/03/06 07:43:06;;;;;;;21.42;11.20;;;;;;;;;;4974377;28;20431;-58
2022/03/06 07:45:33;;;;;;;23.88;11.57;;;;;;;;;;4973933;28;20062;-60
2022/03/06 07:48:03;;;;;;;24.92;12.60;;;;;;;;;;4973767;28;20055;-57
2022/03/06 07:50:31;;;;;;;24.47;11.83;;;;;;;;;;4974539;28;20058;-57
2022/03/06 07:52:59;;;;;;;21.95;11.38;;;;;;;;;;4972916;28;20059;-59
2022/03/06 07:55:26;;;;;;;24.90;12.23;;;;;;;;;;4973694;28;20146;-58
2022/03/06 07:57:53;;;;;;;25.40;11.60;;;;;;;;;;4973604;28;20565;-57
2022/03/06 08:00:20;;;;;;;24.00;11.85;;;;;;;;;;4974045;28;20082;-58
2022/03/06 08:02:47;;;;;;;26.35;12.23;;;;;;;;;;4973529;28;20051;-58
2022/03/06 08:05:14;;;;;;;24.67;10.90;;;;;;;;;;4973665;28;20089;-57
2022/03/06 08:07:41;;;;;;;26.38;12.50;;;;;;;;;;4973309;28;20054;-58
2022/03/06 08:10:10;;;;;;;32.80;12.95;;;;;;;;;;4973676;28;20050;-59
2022/03/06 08:12:37;;;;;;;22.05;11.43;;;;;;;;;;4973578;28;20051;-57
2022/03/06 08:15:05;;;;;;;26.92;11.90;;;;;;;;;;4973950;28;20070;-59
2022/03/06 08:17:32;;;;;;;25.00;11.98;;;;;;;;;;4973839;28;20055;-58
2022/03/06 08:19:59;;;;;;;22.30;10.73;;;;;;;;;;4973687;28;20051;-59
2022/03/06 08:22:26;;;;;;;23.63;10.60;;;;;;;;;;4973477;28;20054;-58
2022/03/06 08:24:54;;;;;;;21.67;11.90;;;;;;;;;;4973687;28;20074;-58
2022/03/06 08:27:23;;;;;;;24.42;11.77;;;;;;;;;;4973369;28;20055;-58
2022/03/06 08:29:51;;;;;;;26.17;13.05;;;;;;;;;;4973360;28;20055;-56
2022/03/06 08:32:18;;;;;;;23.40;11.23;;;;;;;;;;4973282;28;20051;-58
2022/03/06 08:34:46;;;;;;;24.30;11.90;;;;;;;;;;4973175;28;20061;-58
2022/03/06 08:37:13;;;;;;;20.98;10.68;;;;;;;;;;4973139;28;20109;-56
2022/03/06 08:39:40;;;;;;;25.98;11.30;;;;;;;;;;4973481;28;20065;-59
2022/03/06 08:42:08;;;;;;;24.33;11.70;;;;;;;;;;4971117;28;20561;-59
2022/03/06 08:44:36;;;;;;;21.08;10.60;;;;;;;;;;4959861;28;20130;-59
2022/03/06 08:47:04;;;;;;;26.25;11.80;;;;;;;;;;4953855;28;20051;-60
2022/03/06 08:49:31;;;;;;;23.02;10.70;;;;;;;;;;4953758;28;20052;-59
2022/03/06 08:51:58;;;;;;;20.98;10.65;;;;;;;;;;4954097;28;20416;-59
2022/03/06 08:54:26;;;;;;;22.08;11.48;;;;;;;;;;4953964;28;20134;-60
2022/03/06 08:56:53;;;;;;;27.45;12.32;;;;;;;;;;4953691;28;20055;-59
2022/03/06 08:59:20;;;;;;;25.95;11.25;;;;;;;;;;4953987;28;20469;-59
2022/03/06 09:01:49;;;;;;;22.73;9.77;;;;;;;;;;4954035;28;20115;-59
2022/03/06 09:04:16;;;;;;;19.52;10.05;;;;;;;;;;4954930;28;20500;-59
2022/03/06 09:06:43;;;;;;;18.42;9.30;;;;;;;;;;4957034;28;20055;-60
2022/03/06 09:09:10;;;;;;;17.92;9.48;;;;;;;;;;4957122;28;20054;-59
2022/03/06 09:11:37;;;;;;;19.73;10.82;;;;;;;;;;4957486;28;20135;-60
2022/03/06 09:14:04;;;;;;;20.98;11.13;;;;;;;;;;4957412;28;20508;-60
2022/03/06 09:16:31;;;;;;;20.38;10.27;;;;;;;;;;4956968;28;20058;-60
2022/03/06 09:19:01;;;;;;;20.50;9.32;;;;;;;;;;4957146;28;20051;-59
2022/03/06 09:21:28;;;;;;;19.30;9.10;;;;;;;;;;4957350;28;20069;-60
2022/03/06 09:23:55;;;;;;;21.40;10.05;;;;;;;;;;4957375;28;20047;-60
2022/03/06 09:26:22;;;;;;;23.85;10.50;;;;;;;;;;4956853;28;20565;-59
2022/03/06 09:28:49;;;;;;;23.63;10.23;;;;;;;;;;4957156;28;20083;-61
2022/03/06 09:31:17;;;;;;;20.85;10.10;;;;;;;;;;4957263;28;20484;-60
2022/03/06 09:33:44;;;;;;;21.08;9.70;;;;;;;;;;4956909;28;20073;-60
2022/03/06 09:36:12;;;;;;;18.85;9.48;;;;;;;;;;4957135;28;20062;-60
2022/03/06 09:38:39;;;;;;;21.17;10.02;;;;;;;;;;4956954;28;20055;-60
2022/03/06 09:41:07;;;;;;;19.33;9.63;;;;;;;;;;4957179;28;20047;-62
2022/03/06 09:43:34;;;;;;;21.20;9.50;;;;;;;;;;4958267;28;20213;-58
2022/03/06 09:46:05;;;;;;;22.38;10.50;;;;;;;;;;4976218;28;20105;-59
2022/03/06 09:48:32;;;;;;;22.45;10.20;;;;;;;;;;4976170;28;20050;-60
2022/03/06 09:51:01;;;;;;;20.90;9.95;;;;;;;;;;4976316;28;20047;-58
2022/03/06 09:53:31;;;;;;;19.08;9.38;;;;;;;;;;4976355;28;20050;-60
2022/03/06 09:55:58;;;;;;;22.48;10.32;;;;;;;;;;4975849;28;20101;-60
2022/03/06 09:58:25;;;;;;;19.10;9.38;;;;;;;;;;4976109;28;20050;-60
2022/03/06 10:00:52;;;;;;;20.13;9.95;;;;;;;;;;4975830;28;20618;-60
2022/03/06 10:03:21;;;;;;;16.90;9.80;;;;;;;;;;4975767;28;20055;-59
2022/03/06 10:05:48;;;;;;;19.77;8.85;;;;;;;;;;4975499;28;20046;-60
2022/03/06 10:08:17;;;;;;;21.63;10.70;;;;;;;;;;4976100;28;20057;-60
2022/03/06 10:10:47;;;;;;;21.42;10.23;;;;;;;;;;4975931;28;20054;-58
2022/03/06 10:13:22;;;;;;;17.02;9.43;;;;;;;;;;4975642;28;20054;-59
2022/03/06 10:16:10;;;;;;;20.48;9.93;;;;;;;;;;4974418;28;20062;-61
2022/03/06 10:18:40;;;;;;;17.08;9.52;;;;;;;;;;4975888;28;20488;-60
2022/03/06 10:21:19;;;;;;;17.90;9.95;;;;;;;;;;4975990;28;20065;-59
2022/03/06 10:23:48;;;;;;;17.00;9.65;;;;;;;;;;4975645;28;20047;-60
2022/03/06 10:26:18;;;;;;;20.23;9.98;;;;;;;;;;4975154;28;20047;-60
2022/03/06 10:28:52;;;;;;;19.67;8.98;;;;;;;;;;4975308;28;20066;-61
2022/03/06 10:31:20;;;;;;;19.60;10.23;;;;;;;;;;4975573;28;20061;-59
2022/03/06 10:34:07;;;;;;;18.42;10.20;;;;;;;;;;4975510;28;20520;-60
2022/03/06 10:36:36;;;;;;;18.90;9.07;;;;;;;;;;4975409;28;20055;-60
2022/03/06 10:39:09;;;;;;;19.80;9.40;;;;;;;;;;4975393;28;20335;-60
2022/03/06 10:41:39;;;;;;;20.38;10.55;;;;;;;;;;4975522;28;20055;-60
2022/03/06 10:44:09;;;;;;;18.88;10.77;;;;;;;;;;4969781;28;20047;-59
2022/03/06 10:46:37;;;;;;;22.33;11.13;;;;;;;;;;4955471;28;20082;-61
2022/03/06 10:49:12;;;;;;;18.45;9.27;;;;;;;;;;4955955;28;20431;-61
2022/03/06 10:51:41;;;;;;;18.52;9.20;;;;;;;;;;4956580;28;20059;-60
2022/03/06 10:54:09;;;;;;;18.50;9.38;;;;;;;;;;4955944;28;20420;-60
2022/03/06 10:56:38;;;;;;;20.13;10.40;;;;;;;;;;4955626;28;20055;-60
2022/03/06 10:59:07;;;;;;;19.48;9.05;;;;;;;;;;4955698;28;20051;-60
2022/03/06 11:01:36;;;;;;;16.00;8.70;;;;;;;;;;4955970;28;20051;-60
2022/03/06 11:04:04;;;;;;;19.00;9.82;;;;;;;;;;4955319;28;20051;-60
2022/03/06 11:06:39;;;;;;;20.10;9.48;;;;;;;;;;4955155;28;20138;-60
2022/03/06 11:09:10;;;;;;;15.93;8.45;;;;;;;;;;4955266;28;20050;-59
2022/03/06 11:11:40;;;;;;;19.45;9.48;;;;;;;;;;4955255;28;20057;-60
2022/03/06 11:14:08;;;;;;;19.13;10.00;;;;;;;;;;4955466;28;20077;-60
2022/03/06 11:16:36;;;;;;;18.80;9.27;;;;;;;;;;4954665;28;20053;-59
2022/03/06 11:19:03;;;;;;;19.30;9.93;;;;;;;;;;4955139;28;20122;-58
2022/03/06 11:21:33;;;;;;;18.70;8.98;;;;;;;;;;4955075;28;20051;-56
2022/03/06 11:24:07;;;;;;;19.60;9.38;;;;;;;;;;4955082;28;20046;-59
2022/03/06 11:27:08;;;;;;;18.90;8.52;;;;;;;;;;4954238;28;20059;-58
2022/03/06 11:29:54;;;;;;;18.17;9.93;;;;;;;;;;4955076;28;20496;-59
2022/03/06 11:32:26;;;;;;;18.17;9.30;;;;;;;;;;4954738;28;20134;-59
2022/03/06 11:35:00;;;;;;;18.15;9.40;;;;;;;;;;4954784;28;20059;-59
2022/03/06 11:37:28;;;;;;;20.13;9.65;;;;;;;;;;4954400;28;20135;-60
2022/03/06 11:39:56;;;;;;;15.27;9.77;;;;;;;;;;4954928;28;20082;-58
2022/03/06 11:42:54;;;;;;;22.33;10.02;;;;;;;;;;4954829;28;20047;-59
2022/03/06 11:45:54;;;;;;;16.65;9.02;;;;;;;;;;4970236;28;20562;-58
2022/03/06 11:48:55;;;;;;;18.77;9.00;;;;;;;;;;4974168;28;20113;-59
2022/03/06 11:51:30;;;;;;;15.88;8.60;;;;;;;;;;4972233;28;20055;-59
2022/03/06 11:54:00;;;;;;;17.30;8.90;;;;;;;;;;4974264;28;20054;-59
2022/03/06 11:56:57;;;;;;;16.95;8.35;;;;;;;;;;4973689;28;20138;-58
2022/03/06 11:59:38;;;;;;;14.68;8.38;;;;;;;;;;4973902;28;20051;-59
2022/03/06 12:02:25;;;;;;;;;;;;;;;;;;4974285;28;20046;-59
2022/03/06 12:04:56;;;;;;;16.27;8.57;;;;;;;;;;4974036;28;19930;-58
2022/03/06 12:07:26;;;;;;;18.63;9.50;;;;;;;;;;4973862;28;20046;-59
2022/03/06 12:09:54;;;;;;;18.25;8.25;;;;;;;;;;4974249;28;20050;-59
2022/03/06 12:12:22;;;;;;;17.27;8.73;;;;;;;;;;4973665;28;20055;-60
2022/03/06 12:14:51;;;;;;;13.02;7.30;;;;;;;;;;4973777;28;20488;-60
2022/03/06 12:17:36;;;;;;;15.60;8.77;;;;;;;;;;4973150;28;20131;-59
2022/03/06 12:20:43;;;;;;;16.92;8.23;;;;;;;;;;4973548;28;20043;-59
2022/03/06 12:23:22;;;;;;;16.35;7.88;;;;;;;;;;4973599;28;20146;-60
2022/03/06 12:25:54;;;;;;;16.67;8.45;;;;;;;;;;4973521;28;20061;-58
2022/03/06 12:28:26;;;;;;;15.70;8.43;;;;;;;;;;4973620;28;20143;-66
2022/03/06 12:30:56;;;;;;;17.38;9.35;;;;;;;;;;4973897;28;20543;-66
2022/03/06 12:33:39;;;;;;;19.45;9.18;;;;;;;;;;4973598;28;20051;-59
2022/03/06 12:36:21;;;;;;;19.85;9.27;;;;;;;;;;4973270;28;20059;-59
2022/03/06 12:38:53;;;;;;;17.98;9.90;;;;;;;;;;4973589;28;20050;-59
2022/03/06 12:41:20;;;;;;;16.98;8.55;;;;;;;;;;4977302;28;20440;-59
2022/03/06 12:43:50;;;;;;;17.30;8.93;;;;;;;;;;4974006;28;20126;-58
2022/03/06 12:46:18;;;;;;;15.50;8.50;;;;;;;;;;4957580;28;20067;-58
2022/03/06 12:48:49;;;;;;;16.35;9.75;;;;;;;;;;4957366;28;20150;-57
2022/03/06 12:51:31;;;;;;;;;;;;;;;;;;4958882;28;20133;-58
2022/03/06 12:53:58;;;;;;;14.75;8.02;;;;;;;;;;4957720;28;20043;-58
2022/03/06 12:56:30;;;;;;;16.45;9.18;;;;;;;;;;4957742;28;20049;-59
2022/03/06 12:59:06;;;;;;;16.70;8.73;;;;;;;;;;4957957;28;20057;-59
2022/03/06 13:01:38;;;;;;;15.90;7.93;;;;;;;;;;4957946;28;20055;-59
2022/03/06 13:04:07;;;;;;;16.42;8.43;;;;;;;;;;4957135;28;20075;-59
2022/03/06 13:06:35;;;;;;;16.35;9.15;;;;;;;;;;4957480;28;20058;-59
2022/03/06 13:09:03;;;;;;;15.20;8.13;;;;;;;;;;4957096;28;20142;-57
2022/03/06 13:11:34;;;;;;;15.85;8.27;;;;;;;;;;4957374;28;20708;-59
2022/03/06 13:14:03;;;;;;;17.05;8.52;;;;;;;;;;4957164;28;20134;-59
2022/03/06 13:16:31;;;;;;;13.15;8.13;;;;;;;;;;4957038;28;20051;-60
2022/03/06 13:19:03;;;;;;;14.10;8.20;;;;;;;;;;4956870;28;20489;-59
2022/03/06 13:21:30;;;;;;;16.70;9.23;;;;;;;;;;4957129;29;20500;-56
2022/03/06 13:24:01;;;;;;;16.13;8.73;;;;;;;;;;4976055;23;20034;-80
2022/03/06 13:26:29;;;;;;;16.33;8.82;;;;;;;;;;4979978;28;20042;-80
2022/03/06 13:28:57;;;;;;;17.10;9.98;;;;;;;;;;4979836;28;20050;-79
2022/03/06 13:31:24;;;;;;;16.63;9.60;;;;;;;;;;4979788;28;20043;-81
2022/03/06 13:34:05;;;;;;;17.55;9.02;;;;;;;;;;4979882;28;20043;-80
2022/03/06 13:36:32;;;;;;;14.93;8.95;;;;;;;;;;4980527;28;20054;-81
2022/03/06 13:39:02;;;;;;;15.85;9.02;;;;;;;;;;4980384;28;20069;-81
2022/03/06 13:41:29;;;;;;;17.70;9.95;;;;;;;;;;4981770;28;20050;-81
2022/03/06 13:43:56;;;;;;;17.55;9.05;;;;;;;;;;4984591;28;20058;-81
2022/03/06 13:46:23;;;;;;;17.65;9.23;;;;;;;;;;4984069;28;20405;-81
2022/03/06 13:48:51;;;;;;;104.03;42.92;;;;;;;;;;4983568;28;20085;-80
2022/03/06 13:51:19;;;;;;;31.63;13.05;;;;;;;;;;4983319;28;20054;-82
2022/03/06 13:53:54;;;;;;;25.48;12.02;;;;;;;;;;4980827;28;20053;-84
2022/03/06 13:56:30;;;;;;;19.25;9.63;;;;;;;;;;4982884;28;20057;-85
2022/03/06 13:58:57;;;;;;;31.15;13.18;;;;;;;;;;4982330;28;20043;-80
2022/03/06 14:01:26;;;;;;;22.50;11.35;;;;;;;;;;4981506;28;20050;-83
2022/03/06 14:03:59;;;;;;;16.08;9.10;;;;;;;;;;4981992;28;20670;-79
2022/03/06 14:06:41;;;;;;;21.83;11.13;;;;;;;;;;4980816;28;20088;-83
2022/03/06 14:09:26;;;;;;;15.98;8.57;;;;;;;;;;4978533;28;20470;-81
2022/03/06 14:12:08;;;;;;;15.45;9.02;;;;;;;;;;4978988;28;20054;-81
2022/03/06 14:14:39;;;;;;;16.52;9.02;;;;;;;;;;4979925;28;20055;-81
2022/03/06 14:17:07;;;;;;;15.38;8.23;;;;;;;;;;4981552;28;20101;-81
2022/03/06 14:19:34;;;;;;;17.52;10.35;;;;;;;;;;4985161;28;20054;-82
2022/03/06 14:22:01;;;;;;;19.50;10.50;;;;;;;;;;4979654;28;20127;-82
2022/03/06 14:24:29;;;;;;;15.80;9.45;;;;;;;;;;4978281;28;20051;-81
2022/03/06 14:26:56;;;;;;;15.18;9.52;;;;;;;;;;4978408;28;20505;-81
2022/03/06 14:29:26;;;;;;;15.85;9.15;;;;;;;;;;4979196;28;20093;-81
2022/03/06 14:31:56;;;;;;;17.58;10.13;;;;;;;;;;4978096;28;20126;-81
2022/03/06 14:34:26;;;;;;;15.50;8.47;;;;;;;;;;4978933;28;20458;-81